上海/浦東 の空港の天気 - METARとTAF

上海浦東国際空港 ( ZSPD / PVG ) - 中国 上海市
飛行場実況気象(Metar)
観測時間09/21 06:00 CST (09/20 22:00 UTC)
風向・風速北西 4m/s
視程4000m
天気現象もや
全天を覆う雲 雲底高度 340m
気温25℃
湿度94%
気圧1010hPa
METARZSPD 202200Z 32004MPS 4000 BR OVC011 25/24 Q1010 BECMG TL2330 SCT011 OVC030
過去の天気等 Google飛行場航空写真 Wunderground天気予報

過去48時間のMETAR

飛行場予報(TAF)
発表時間: 9/20 23:17 CST (9/20 15:17 UTC)
予報対象時間: 21日2時 CST ~ 22日2時 CST
風向・風速北北西 4m/s
視程6000m
全天の8割程度の雲 雲底高度 400m
TAF ZSPD 201517Z 2018/2118 34004MPS 6000 BKN013 TX28/2106Z TN23/2021Z